sensor_id;sensor_type;location;lat;lon;timestamp;P1;durP1;ratioP1;P2;durP2;ratioP2
34505;SDS011;20748;42.632;23.198;2022-11-20T00:04:27;1.75;;;0.70;;
34505;SDS011;20748;42.632;23.198;2022-11-20T00:07:00;1.23;;;0.90;;
34505;SDS011;20748;42.632;23.198;2022-11-20T00:09:33;1.98;;;0.95;;
34505;SDS011;20748;42.632;23.198;2022-11-20T00:12:05;1.52;;;0.90;;
34505;SDS011;20748;42.632;23.198;2022-11-20T00:14:38;3.05;;;1.00;;
34505;SDS011;20748;42.632;23.198;2022-11-20T00:17:11;1.05;;;0.60;;
34505;SDS011;20748;42.632;23.198;2022-11-20T00:19:43;2.70;;;0.73;;
34505;SDS011;20748;42.632;23.198;2022-11-20T00:22:15;3.78;;;0.63;;
34505;SDS011;20748;42.632;23.198;2022-11-20T00:24:48;1.25;;;0.80;;
34505;SDS011;20748;42.632;23.198;2022-11-20T00:27:21;1.27;;;0.45;;
34505;SDS011;20748;42.632;23.198;2022-11-20T00:29:53;3.30;;;0.70;;
34505;SDS011;20748;42.632;23.198;2022-11-20T00:32:25;0.85;;;0.57;;
34505;SDS011;20748;42.632;23.198;2022-11-20T00:34:58;0.93;;;0.80;;
34505;SDS011;20748;42.632;23.198;2022-11-20T00:37:30;3.17;;;0.80;;
34505;SDS011;20748;42.632;23.198;2022-11-20T00:40:04;2.40;;;0.50;;
34505;SDS011;20748;42.632;23.198;2022-11-20T00:42:37;0.70;;;0.60;;
34505;SDS011;20748;42.632;23.198;2022-11-20T00:45:10;2.13;;;0.52;;
34505;SDS011;20748;42.632;23.198;2022-11-20T00:47:42;1.75;;;1.35;;
34505;SDS011;20748;42.632;23.198;2022-11-20T00:50:15;1.58;;;0.68;;
34505;SDS011;20748;42.632;23.198;2022-11-20T00:52:47;2.85;;;0.73;;
34505;SDS011;20748;42.632;23.198;2022-11-20T00:55:20;1.27;;;0.75;;
34505;SDS011;20748;42.632;23.198;2022-11-20T00:57:52;2.60;;;0.55;;
34505;SDS011;20748;42.632;23.198;2022-11-20T01:00:25;1.65;;;0.65;;
34505;SDS011;20748;42.632;23.198;2022-11-20T01:02:57;1.08;;;0.75;;
34505;SDS011;20748;42.632;23.198;2022-11-20T01:05:33;1.75;;;1.05;;
34505;SDS011;20748;42.632;23.198;2022-11-20T01:08:06;3.17;;;0.88;;
34505;SDS011;20748;42.632;23.198;2022-11-20T01:10:39;1.55;;;0.95;;
34505;SDS011;20748;42.632;23.198;2022-11-20T01:13:11;3.05;;;0.70;;
34505;SDS011;20748;42.632;23.198;2022-11-20T01:16:02;1.33;;;0.80;;
34505;SDS011;20748;42.632;23.198;2022-11-20T01:18:35;0.68;;;0.60;;
34505;SDS011;20748;42.632;23.198;2022-11-20T01:21:09;4.70;;;0.88;;
34505;SDS011;20748;42.632;23.198;2022-11-20T01:23:43;1.55;;;0.80;;
34505;SDS011;20748;42.632;23.198;2022-11-20T01:26:17;1.50;;;0.70;;
34505;SDS011;20748;42.632;23.198;2022-11-20T01:28:51;0.85;;;0.60;;
34505;SDS011;20748;42.632;23.198;2022-11-20T01:31:24;2.83;;;0.70;;
34505;SDS011;20748;42.632;23.198;2022-11-20T01:33:58;1.15;;;0.60;;
34505;SDS011;20748;42.632;23.198;2022-11-20T01:36:32;0.70;;;0.40;;
34505;SDS011;20748;42.632;23.198;2022-11-20T01:39:07;1.65;;;0.57;;
34505;SDS011;20748;42.632;23.198;2022-11-20T01:41:45;2.55;;;0.65;;
34505;SDS011;20748;42.632;23.198;2022-11-20T01:44:52;1.27;;;0.60;;
34505;SDS011;20748;42.632;23.198;2022-11-20T01:47:30;2.50;;;0.60;;
34505;SDS011;20748;42.632;23.198;2022-11-20T01:50:08;0.85;;;0.55;;
34505;SDS011;20748;42.632;23.198;2022-11-20T01:52:45;0.70;;;0.52;;
34505;SDS011;20748;42.632;23.198;2022-11-20T01:55:23;0.80;;;0.50;;
34505;SDS011;20748;42.632;23.198;2022-11-20T01:57:58;2.20;;;0.45;;
34505;SDS011;20748;42.632;23.198;2022-11-20T02:00:33;0.88;;;0.60;;
34505;SDS011;20748;42.632;23.198;2022-11-20T02:03:06;0.45;;;0.35;;
34505;SDS011;20748;42.632;23.198;2022-11-20T02:05:41;0.80;;;0.40;;
34505;SDS011;20748;42.632;23.198;2022-11-20T02:08:18;1.45;;;0.50;;
34505;SDS011;20748;42.632;23.198;2022-11-20T02:10:51;1.40;;;0.55;;
34505;SDS011;20748;42.632;23.198;2022-11-20T02:13:25;1.00;;;0.50;;
34505;SDS011;20748;42.632;23.198;2022-11-20T02:16:16;0.50;;;0.50;;
34505;SDS011;20748;42.632;23.198;2022-11-20T02:18:53;1.20;;;0.57;;
34505;SDS011;20748;42.632;23.198;2022-11-20T02:21:28;0.45;;;0.40;;
34505;SDS011;20748;42.632;23.198;2022-11-20T02:24:08;0.70;;;0.52;;
34505;SDS011;20748;42.632;23.198;2022-11-20T02:26:45;1.48;;;0.45;;
34505;SDS011;20748;42.632;23.198;2022-11-20T02:29:23;2.08;;;0.50;;
34505;SDS011;20748;42.632;23.198;2022-11-20T02:31:58;1.20;;;0.60;;
34505;SDS011;20748;42.632;23.198;2022-11-20T02:34:32;0.70;;;0.40;;
34505;SDS011;20748;42.632;23.198;2022-11-20T02:37:05;1.83;;;0.70;;
34505;SDS011;20748;42.632;23.198;2022-11-20T02:39:38;0.30;;;0.30;;
34505;SDS011;20748;42.632;23.198;2022-11-20T02:42:12;1.35;;;0.57;;
34505;SDS011;20748;42.632;23.198;2022-11-20T02:44:44;1.02;;;0.60;;
34505;SDS011;20748;42.632;23.198;2022-11-20T02:47:17;0.93;;;0.47;;
34505;SDS011;20748;42.632;23.198;2022-11-20T02:49:49;2.67;;;0.80;;
34505;SDS011;20748;42.632;23.198;2022-11-20T02:52:22;1.20;;;1.08;;
34505;SDS011;20748;42.632;23.198;2022-11-20T02:54:55;8.85;;;0.88;;
34505;SDS011;20748;42.632;23.198;2022-11-20T02:57:27;1.98;;;1.48;;
34505;SDS011;20748;42.632;23.198;2022-11-20T03:00:00;3.53;;;0.57;;
34505;SDS011;20748;42.632;23.198;2022-11-20T03:02:32;1.67;;;1.08;;
34505;SDS011;20748;42.632;23.198;2022-11-20T03:05:05;3.00;;;0.63;;
34505;SDS011;20748;42.632;23.198;2022-11-20T03:07:38;1.02;;;0.90;;
34505;SDS011;20748;42.632;23.198;2022-11-20T03:10:11;1.52;;;0.93;;
34505;SDS011;20748;42.632;23.198;2022-11-20T03:12:44;1.13;;;0.45;;
34505;SDS011;20748;42.632;23.198;2022-11-20T03:15:16;1.50;;;1.08;;
34505;SDS011;20748;42.632;23.198;2022-11-20T03:17:49;1.90;;;0.73;;
34505;SDS011;20748;42.632;23.198;2022-11-20T03:20:24;1.10;;;0.85;;
34505;SDS011;20748;42.632;23.198;2022-11-20T03:22:56;1.02;;;0.65;;
34505;SDS011;20748;42.632;23.198;2022-11-20T03:25:30;0.60;;;0.57;;
34505;SDS011;20748;42.632;23.198;2022-11-20T03:28:02;1.38;;;0.60;;
34505;SDS011;20748;42.632;23.198;2022-11-20T03:30:35;1.00;;;0.70;;
34505;SDS011;20748;42.632;23.198;2022-11-20T03:33:07;1.70;;;0.70;;
34505;SDS011;20748;42.632;23.198;2022-11-20T03:35:39;0.82;;;0.43;;
34505;SDS011;20748;42.632;23.198;2022-11-20T03:38:12;1.75;;;0.52;;
34505;SDS011;20748;42.632;23.198;2022-11-20T03:40:45;0.93;;;0.40;;
34505;SDS011;20748;42.632;23.198;2022-11-20T03:43:17;1.95;;;0.80;;
34505;SDS011;20748;42.632;23.198;2022-11-20T03:45:50;1.42;;;0.50;;
34505;SDS011;20748;42.632;23.198;2022-11-20T03:48:22;0.90;;;0.55;;
34505;SDS011;20748;42.632;23.198;2022-11-20T03:51:05;4.28;;;0.75;;
34505;SDS011;20748;42.632;23.198;2022-11-20T03:53:39;3.03;;;0.98;;
34505;SDS011;20748;42.632;23.198;2022-11-20T03:56:13;1.50;;;0.80;;
34505;SDS011;20748;42.632;23.198;2022-11-20T03:58:47;1.23;;;0.47;;
34505;SDS011;20748;42.632;23.198;2022-11-20T04:01:21;2.30;;;0.68;;
34505;SDS011;20748;42.632;23.198;2022-11-20T04:03:54;1.58;;;0.70;;
34505;SDS011;20748;42.632;23.198;2022-11-20T04:06:28;2.30;;;0.85;;
34505;SDS011;20748;42.632;23.198;2022-11-20T04:09:02;0.55;;;0.40;;
34505;SDS011;20748;42.632;23.198;2022-11-20T04:11:36;1.08;;;0.60;;
34505;SDS011;20748;42.632;23.198;2022-11-20T04:14:12;1.92;;;0.70;;
34505;SDS011;20748;42.632;23.198;2022-11-20T04:16:46;1.02;;;0.57;;
34505;SDS011;20748;42.632;23.198;2022-11-20T04:19:18;1.85;;;0.93;;
34505;SDS011;20748;42.632;23.198;2022-11-20T04:21:51;1.95;;;0.85;;
34505;SDS011;20748;42.632;23.198;2022-11-20T04:24:24;0.82;;;0.43;;
34505;SDS011;20748;42.632;23.198;2022-11-20T04:26:59;2.28;;;0.28;;
34505;SDS011;20748;42.632;23.198;2022-11-20T04:29:31;0.88;;;0.63;;
34505;SDS011;20748;42.632;23.198;2022-11-20T04:32:03;1.38;;;0.50;;
34505;SDS011;20748;42.632;23.198;2022-11-20T04:34:36;1.63;;;0.52;;
34505;SDS011;20748;42.632;23.198;2022-11-20T04:37:08;0.77;;;0.60;;
34505;SDS011;20748;42.632;23.198;2022-11-20T04:39:40;0.77;;;0.40;;
34505;SDS011;20748;42.632;23.198;2022-11-20T04:42:14;0.40;;;0.40;;
34505;SDS011;20748;42.632;23.198;2022-11-20T04:45:01;1.35;;;1.05;;
34505;SDS011;20748;42.632;23.198;2022-11-20T04:47:33;1.40;;;0.47;;
34505;SDS011;20748;42.632;23.198;2022-11-20T04:50:06;2.40;;;1.02;;
34505;SDS011;20748;42.632;23.198;2022-11-20T04:52:39;1.70;;;0.60;;
34505;SDS011;20748;42.632;23.198;2022-11-20T04:55:11;0.68;;;0.68;;
34505;SDS011;20748;42.632;23.198;2022-11-20T04:57:44;4.88;;;1.15;;
34505;SDS011;20748;42.632;23.198;2022-11-20T05:00:17;0.85;;;0.50;;
34505;SDS011;20748;42.632;23.198;2022-11-20T05:02:50;4.90;;;0.93;;
34505;SDS011;20748;42.632;23.198;2022-11-20T05:05:22;0.52;;;0.45;;
34505;SDS011;20748;42.632;23.198;2022-11-20T05:07:55;0.77;;;0.50;;
34505;SDS011;20748;42.632;23.198;2022-11-20T05:10:28;1.52;;;0.90;;
34505;SDS011;20748;42.632;23.198;2022-11-20T05:13:01;1.85;;;0.52;;
34505;SDS011;20748;42.632;23.198;2022-11-20T05:15:33;1.63;;;0.60;;
34505;SDS011;20748;42.632;23.198;2022-11-20T05:18:06;0.95;;;0.60;;
34505;SDS011;20748;42.632;23.198;2022-11-20T05:20:38;1.85;;;0.60;;
34505;SDS011;20748;42.632;23.198;2022-11-20T05:23:11;1.80;;;0.70;;
34505;SDS011;20748;42.632;23.198;2022-11-20T05:25:43;1.00;;;0.55;;
34505;SDS011;20748;42.632;23.198;2022-11-20T05:28:16;1.23;;;0.73;;
34505;SDS011;20748;42.632;23.198;2022-11-20T05:30:48;0.55;;;0.50;;
34505;SDS011;20748;42.632;23.198;2022-11-20T05:33:21;6.15;;;1.88;;
34505;SDS011;20748;42.632;23.198;2022-11-20T05:35:53;2.42;;;0.40;;
34505;SDS011;20748;42.632;23.198;2022-11-20T05:38:30;0.82;;;0.73;;
34505;SDS011;20748;42.632;23.198;2022-11-20T05:41:03;0.32;;;0.32;;
34505;SDS011;20748;42.632;23.198;2022-11-20T05:43:37;1.52;;;0.70;;
34505;SDS011;20748;42.632;23.198;2022-11-20T05:46:11;6.10;;;0.73;;
34505;SDS011;20748;42.632;23.198;2022-11-20T05:48:45;2.28;;;0.80;;
34505;SDS011;20748;42.632;23.198;2022-11-20T05:51:18;2.83;;;0.90;;
34505;SDS011;20748;42.632;23.198;2022-11-20T05:53:51;1.88;;;1.08;;
34505;SDS011;20748;42.632;23.198;2022-11-20T05:56:24;1.92;;;0.98;;
34505;SDS011;20748;42.632;23.198;2022-11-20T05:58:57;1.08;;;0.60;;
34505;SDS011;20748;42.632;23.198;2022-11-20T06:01:29;2.50;;;0.82;;
34505;SDS011;20748;42.632;23.198;2022-11-20T06:04:02;1.23;;;0.77;;
34505;SDS011;20748;42.632;23.198;2022-11-20T06:06:34;1.25;;;0.70;;
34505;SDS011;20748;42.632;23.198;2022-11-20T06:09:07;2.08;;;0.50;;
34505;SDS011;20748;42.632;23.198;2022-11-20T06:11:39;2.55;;;1.17;;
34505;SDS011;20748;42.632;23.198;2022-11-20T06:14:12;2.80;;;1.13;;
34505;SDS011;20748;42.632;23.198;2022-11-20T06:16:44;0.70;;;0.47;;
34505;SDS011;20748;42.632;23.198;2022-11-20T06:19:17;0.98;;;0.57;;
34505;SDS011;20748;42.632;23.198;2022-11-20T06:21:49;0.80;;;0.50;;
34505;SDS011;20748;42.632;23.198;2022-11-20T06:24:22;1.52;;;1.13;;
34505;SDS011;20748;42.632;23.198;2022-11-20T06:26:56;2.38;;;0.73;;
34505;SDS011;20748;42.632;23.198;2022-11-20T06:29:29;3.97;;;0.80;;
34505;SDS011;20748;42.632;23.198;2022-11-20T06:32:05;1.58;;;0.50;;
34505;SDS011;20748;42.632;23.198;2022-11-20T06:34:37;5.80;;;1.33;;
34505;SDS011;20748;42.632;23.198;2022-11-20T06:37:09;2.45;;;1.05;;
34505;SDS011;20748;42.632;23.198;2022-11-20T06:39:42;2.60;;;0.95;;
34505;SDS011;20748;42.632;23.198;2022-11-20T06:42:14;1.23;;;0.60;;
34505;SDS011;20748;42.632;23.198;2022-11-20T06:44:47;2.80;;;1.30;;
34505;SDS011;20748;42.632;23.198;2022-11-20T06:47:19;1.42;;;0.68;;
34505;SDS011;20748;42.632;23.198;2022-11-20T06:49:52;0.82;;;0.73;;
34505;SDS011;20748;42.632;23.198;2022-11-20T06:52:25;1.23;;;0.57;;
34505;SDS011;20748;42.632;23.198;2022-11-20T06:54:57;1.85;;;0.73;;
34505;SDS011;20748;42.632;23.198;2022-11-20T06:57:30;1.63;;;0.70;;
34505;SDS011;20748;42.632;23.198;2022-11-20T07:00:03;1.73;;;0.60;;
34505;SDS011;20748;42.632;23.198;2022-11-20T07:02:36;1.17;;;0.43;;
34505;SDS011;20748;42.632;23.198;2022-11-20T07:05:08;0.52;;;0.50;;
34505;SDS011;20748;42.632;23.198;2022-11-20T07:07:41;1.90;;;0.80;;
34505;SDS011;20748;42.632;23.198;2022-11-20T07:10:13;1.67;;;0.98;;
34505;SDS011;20748;42.632;23.198;2022-11-20T07:12:48;1.88;;;0.57;;
34505;SDS011;20748;42.632;23.198;2022-11-20T07:15:23;1.90;;;0.90;;
34505;SDS011;20748;42.632;23.198;2022-11-20T07:17:58;0.77;;;0.50;;
34505;SDS011;20748;42.632;23.198;2022-11-20T07:20:30;2.08;;;0.68;;
34505;SDS011;20748;42.632;23.198;2022-11-20T07:23:02;0.90;;;0.60;;
34505;SDS011;20748;42.632;23.198;2022-11-20T07:25:35;1.67;;;0.70;;
34505;SDS011;20748;42.632;23.198;2022-11-20T07:28:07;2.47;;;0.70;;
34505;SDS011;20748;42.632;23.198;2022-11-20T07:30:42;0.95;;;0.60;;
34505;SDS011;20748;42.632;23.198;2022-11-20T07:33:15;1.90;;;0.85;;
34505;SDS011;20748;42.632;23.198;2022-11-20T07:35:47;0.73;;;0.50;;
34505;SDS011;20748;42.632;23.198;2022-11-20T07:38:19;1.73;;;1.30;;
34505;SDS011;20748;42.632;23.198;2022-11-20T07:40:53;0.60;;;0.50;;
34505;SDS011;20748;42.632;23.198;2022-11-20T07:43:26;3.25;;;1.17;;
34505;SDS011;20748;42.632;23.198;2022-11-20T07:45:59;2.95;;;1.13;;
34505;SDS011;20748;42.632;23.198;2022-11-20T07:48:32;1.73;;;0.80;;
34505;SDS011;20748;42.632;23.198;2022-11-20T07:51:04;3.55;;;1.13;;
34505;SDS011;20748;42.632;23.198;2022-11-20T07:53:36;2.60;;;0.95;;
34505;SDS011;20748;42.632;23.198;2022-11-20T07:56:09;1.63;;;0.63;;
34505;SDS011;20748;42.632;23.198;2022-11-20T07:58:41;0.40;;;0.40;;
34505;SDS011;20748;42.632;23.198;2022-11-20T08:01:14;1.75;;;0.80;;
34505;SDS011;20748;42.632;23.198;2022-11-20T08:03:47;2.47;;;0.90;;
34505;SDS011;20748;42.632;23.198;2022-11-20T08:06:19;0.73;;;0.55;;
34505;SDS011;20748;42.632;23.198;2022-11-20T08:08:51;3.72;;;1.20;;
34505;SDS011;20748;42.632;23.198;2022-11-20T08:11:24;2.75;;;1.05;;
34505;SDS011;20748;42.632;23.198;2022-11-20T08:14:14;3.58;;;0.63;;
34505;SDS011;20748;42.632;23.198;2022-11-20T08:16:48;1.80;;;0.90;;
34505;SDS011;20748;42.632;23.198;2022-11-20T08:19:21;2.92;;;0.80;;
34505;SDS011;20748;42.632;23.198;2022-11-20T08:21:54;1.17;;;1.08;;
34505;SDS011;20748;42.632;23.198;2022-11-20T08:24:27;1.88;;;1.02;;
34505;SDS011;20748;42.632;23.198;2022-11-20T08:26:59;1.30;;;0.93;;
34505;SDS011;20748;42.632;23.198;2022-11-20T08:29:32;2.53;;;0.93;;
34505;SDS011;20748;42.632;23.198;2022-11-20T08:32:05;5.00;;;1.10;;
34505;SDS011;20748;42.632;23.198;2022-11-20T08:34:37;1.13;;;0.77;;
34505;SDS011;20748;42.632;23.198;2022-11-20T08:37:10;3.72;;;1.05;;
34505;SDS011;20748;42.632;23.198;2022-11-20T08:39:42;7.45;;;1.40;;
34505;SDS011;20748;42.632;23.198;2022-11-20T08:42:14;2.03;;;1.05;;
34505;SDS011;20748;42.632;23.198;2022-11-20T08:44:47;4.05;;;1.10;;
34505;SDS011;20748;42.632;23.198;2022-11-20T08:47:20;1.95;;;0.98;;
34505;SDS011;20748;42.632;23.198;2022-11-20T08:49:52;1.88;;;1.35;;
34505;SDS011;20748;42.632;23.198;2022-11-20T08:52:24;4.30;;;1.77;;
34505;SDS011;20748;42.632;23.198;2022-11-20T08:54:58;3.17;;;1.30;;
34505;SDS011;20748;42.632;23.198;2022-11-20T08:57:31;3.72;;;1.63;;
34505;SDS011;20748;42.632;23.198;2022-11-20T09:00:04;2.33;;;1.45;;
34505;SDS011;20748;42.632;23.198;2022-11-20T09:02:40;3.83;;;1.75;;
34505;SDS011;20748;42.632;23.198;2022-11-20T09:05:12;4.05;;;1.27;;
34505;SDS011;20748;42.632;23.198;2022-11-20T09:07:45;1.52;;;1.30;;
34505;SDS011;20748;42.632;23.198;2022-11-20T09:10:17;1.15;;;0.77;;
34505;SDS011;20748;42.632;23.198;2022-11-20T09:12:57;3.97;;;1.42;;
34505;SDS011;20748;42.632;23.198;2022-11-20T09:15:30;9.18;;;3.95;;
34505;SDS011;20748;42.632;23.198;2022-11-20T09:18:03;2.53;;;1.20;;
34505;SDS011;20748;42.632;23.198;2022-11-20T09:20:36;2.20;;;0.95;;
34505;SDS011;20748;42.632;23.198;2022-11-20T09:23:08;5.05;;;2.03;;
34505;SDS011;20748;42.632;23.198;2022-11-20T09:25:41;3.47;;;1.40;;
34505;SDS011;20748;42.632;23.198;2022-11-20T09:28:14;3.90;;;1.30;;
34505;SDS011;20748;42.632;23.198;2022-11-20T09:30:46;2.30;;;1.25;;
34505;SDS011;20748;42.632;23.198;2022-11-20T09:33:19;2.50;;;0.82;;
34505;SDS011;20748;42.632;23.198;2022-11-20T09:35:52;6.28;;;1.40;;
34505;SDS011;20748;42.632;23.198;2022-11-20T09:38:24;2.95;;;1.13;;
34505;SDS011;20748;42.632;23.198;2022-11-20T09:40:57;3.88;;;1.42;;
34505;SDS011;20748;42.632;23.198;2022-11-20T09:43:40;3.67;;;1.50;;
34505;SDS011;20748;42.632;23.198;2022-11-20T09:46:23;3.88;;;1.83;;
34505;SDS011;20748;42.632;23.198;2022-11-20T09:49:05;3.25;;;1.02;;
34505;SDS011;20748;42.632;23.198;2022-11-20T09:51:53;3.25;;;1.25;;
34505;SDS011;20748;42.632;23.198;2022-11-20T09:54:30;6.78;;;2.28;;
34505;SDS011;20748;42.632;23.198;2022-11-20T09:57:08;3.22;;;1.55;;
34505;SDS011;20748;42.632;23.198;2022-11-20T09:59:44;2.40;;;0.95;;
34505;SDS011;20748;42.632;23.198;2022-11-20T10:02:20;3.15;;;1.33;;
34505;SDS011;20748;42.632;23.198;2022-11-20T10:05:02;3.90;;;1.45;;
34505;SDS011;20748;42.632;23.198;2022-11-20T10:07:39;8.60;;;2.72;;
34505;SDS011;20748;42.632;23.198;2022-11-20T10:10:15;3.05;;;1.33;;
34505;SDS011;20748;42.632;23.198;2022-11-20T10:12:55;4.10;;;1.77;;
34505;SDS011;20748;42.632;23.198;2022-11-20T10:15:39;6.13;;;2.70;;
34505;SDS011;20748;42.632;23.198;2022-11-20T10:18:24;2.33;;;1.35;;
34505;SDS011;20748;42.632;23.198;2022-11-20T10:21:11;4.32;;;2.33;;
34505;SDS011;20748;42.632;23.198;2022-11-20T10:24:01;5.32;;;2.15;;
34505;SDS011;20748;42.632;23.198;2022-11-20T10:26:58;4.30;;;1.88;;
34505;SDS011;20748;42.632;23.198;2022-11-20T10:29:38;4.15;;;1.30;;
34505;SDS011;20748;42.632;23.198;2022-11-20T10:32:15;10.45;;;3.55;;
34505;SDS011;20748;42.632;23.198;2022-11-20T10:34:51;6.63;;;2.67;;
34505;SDS011;20748;42.632;23.198;2022-11-20T10:37:31;7.60;;;3.55;;
34505;SDS011;20748;42.632;23.198;2022-11-20T10:40:18;7.72;;;2.17;;
34505;SDS011;20748;42.632;23.198;2022-11-20T10:42:56;5.40;;;1.48;;
34505;SDS011;20748;42.632;23.198;2022-11-20T10:45:33;7.75;;;2.60;;
34505;SDS011;20748;42.632;23.198;2022-11-20T10:48:14;3.20;;;1.92;;
34505;SDS011;20748;42.632;23.198;2022-11-20T10:53:53;7.85;;;3.00;;
34505;SDS011;20748;42.632;23.198;2022-11-20T10:56:31;4.72;;;2.40;;
34505;SDS011;20748;42.632;23.198;2022-11-20T10:59:15;9.35;;;1.60;;
34505;SDS011;20748;42.632;23.198;2022-11-20T11:02:14;4.90;;;1.23;;
34505;SDS011;20748;42.632;23.198;2022-11-20T11:04:49;1.40;;;0.57;;
34505;SDS011;20748;42.632;23.198;2022-11-20T11:07:23;2.53;;;1.10;;
34505;SDS011;20748;42.632;23.198;2022-11-20T11:10:12;3.15;;;1.15;;
34505;SDS011;20748;42.632;23.198;2022-11-20T11:12:47;1.27;;;0.70;;
34505;SDS011;20748;42.632;23.198;2022-11-20T11:15:26;1.58;;;0.82;;
34505;SDS011;20748;42.632;23.198;2022-11-20T11:18:00;4.20;;;0.95;;
34505;SDS011;20748;42.632;23.198;2022-11-20T11:20:33;1.80;;;1.35;;
34505;SDS011;20748;42.632;23.198;2022-11-20T11:23:05;4.95;;;1.30;;
34505;SDS011;20748;42.632;23.198;2022-11-20T11:25:58;1.42;;;0.50;;
34505;SDS011;20748;42.632;23.198;2022-11-20T11:28:33;1.20;;;0.75;;
34505;SDS011;20748;42.632;23.198;2022-11-20T11:31:05;2.83;;;1.13;;
34505;SDS011;20748;42.632;23.198;2022-11-20T11:33:38;0.52;;;0.30;;
34505;SDS011;20748;42.632;23.198;2022-11-20T11:36:16;1.08;;;0.32;;
34505;SDS011;20748;42.632;23.198;2022-11-20T11:38:51;0.70;;;0.50;;
34505;SDS011;20748;42.632;23.198;2022-11-20T11:41:31;0.55;;;0.50;;
34505;SDS011;20748;42.632;23.198;2022-11-20T11:44:14;5.28;;;0.77;;
34505;SDS011;20748;42.632;23.198;2022-11-20T11:47:08;1.17;;;0.65;;
34505;SDS011;20748;42.632;23.198;2022-11-20T11:49:43;1.23;;;0.50;;
34505;SDS011;20748;42.632;23.198;2022-11-20T11:52:16;2.75;;;0.60;;
34505;SDS011;20748;42.632;23.198;2022-11-20T11:54:51;3.45;;;0.80;;
34505;SDS011;20748;42.632;23.198;2022-11-20T11:57:28;3.83;;;1.13;;
34505;SDS011;20748;42.632;23.198;2022-11-20T12:00:09;2.58;;;0.85;;
34505;SDS011;20748;42.632;23.198;2022-11-20T12:02:49;1.00;;;0.68;;
34505;SDS011;20748;42.632;23.198;2022-11-20T12:05:35;1.13;;;0.88;;
34505;SDS011;20748;42.632;23.198;2022-11-20T12:08:15;1.75;;;0.40;;
34505;SDS011;20748;42.632;23.198;2022-11-20T12:10:54;2.47;;;0.50;;
34505;SDS011;20748;42.632;23.198;2022-11-20T12:13:40;1.23;;;0.60;;
34505;SDS011;20748;42.632;23.198;2022-11-20T12:16:19;1.85;;;0.68;;
34505;SDS011;20748;42.632;23.198;2022-11-20T12:18:52;0.98;;;0.50;;
34505;SDS011;20748;42.632;23.198;2022-11-20T12:21:28;3.60;;;0.70;;
34505;SDS011;20748;42.632;23.198;2022-11-20T12:24:15;1.60;;;0.52;;
34505;SDS011;20748;42.632;23.198;2022-11-20T12:27:08;1.10;;;0.63;;
34505;SDS011;20748;42.632;23.198;2022-11-20T12:29:59;0.60;;;0.57;;
34505;SDS011;20748;42.632;23.198;2022-11-20T12:32:44;0.70;;;0.40;;
34505;SDS011;20748;42.632;23.198;2022-11-20T12:35:42;4.18;;;1.52;;
34505;SDS011;20748;42.632;23.198;2022-11-20T12:38:32;1.45;;;0.52;;
34505;SDS011;20748;42.632;23.198;2022-11-20T12:41:15;5.13;;;2.17;;
34505;SDS011;20748;42.632;23.198;2022-11-20T12:44:19;2.78;;;1.42;;
34505;SDS011;20748;42.632;23.198;2022-11-20T12:47:27;1.52;;;0.88;;
34505;SDS011;20748;42.632;23.198;2022-11-20T12:50:12;5.35;;;1.42;;
34505;SDS011;20748;42.632;23.198;2022-11-20T12:52:52;4.18;;;1.42;;
34505;SDS011;20748;42.632;23.198;2022-11-20T12:55:31;3.58;;;0.90;;
34505;SDS011;20748;42.632;23.198;2022-11-20T12:58:12;5.32;;;1.80;;
34505;SDS011;20748;42.632;23.198;2022-11-20T13:00:56;3.45;;;1.65;;
34505;SDS011;20748;42.632;23.198;2022-11-20T13:03:42;5.32;;;1.83;;
34505;SDS011;20748;42.632;23.198;2022-11-20T13:06:21;6.03;;;1.10;;
34505;SDS011;20748;42.632;23.198;2022-11-20T13:08:56;5.68;;;2.85;;
34505;SDS011;20748;42.632;23.198;2022-11-20T13:11:31;2.50;;;0.98;;
34505;SDS011;20748;42.632;23.198;2022-11-20T13:14:11;5.22;;;0.80;;
34505;SDS011;20748;42.632;23.198;2022-11-20T13:16:57;3.42;;;1.27;;
34505;SDS011;20748;42.632;23.198;2022-11-20T13:19:38;3.63;;;1.38;;
34505;SDS011;20748;42.632;23.198;2022-11-20T13:22:11;1.35;;;0.75;;
34505;SDS011;20748;42.632;23.198;2022-11-20T13:24:49;2.25;;;1.30;;
34505;SDS011;20748;42.632;23.198;2022-11-20T13:27:22;4.05;;;1.25;;
34505;SDS011;20748;42.632;23.198;2022-11-20T13:29:59;5.53;;;1.30;;
34505;SDS011;20748;42.632;23.198;2022-11-20T13:32:34;3.05;;;1.67;;
34505;SDS011;20748;42.632;23.198;2022-11-20T13:35:08;5.20;;;1.55;;
34505;SDS011;20748;42.632;23.198;2022-11-20T13:37:41;3.67;;;1.60;;
34505;SDS011;20748;42.632;23.198;2022-11-20T13:40:19;5.15;;;2.33;;
34505;SDS011;20748;42.632;23.198;2022-11-20T13:43:01;6.13;;;1.85;;
34505;SDS011;20748;42.632;23.198;2022-11-20T13:45:39;3.72;;;1.40;;
34505;SDS011;20748;42.632;23.198;2022-11-20T13:48:19;8.48;;;2.70;;
34505;SDS011;20748;42.632;23.198;2022-11-20T13:50:58;6.43;;;3.92;;
34505;SDS011;20748;42.632;23.198;2022-11-20T13:53:46;8.10;;;2.95;;
34505;SDS011;20748;42.632;23.198;2022-11-20T13:59:23;4.57;;;3.13;;
34505;SDS011;20748;42.632;23.198;2022-11-20T14:02:08;11.65;;;2.10;;
34505;SDS011;20748;42.632;23.198;2022-11-20T14:04:45;10.50;;;4.93;;
34505;SDS011;20748;42.632;23.198;2022-11-20T14:07:21;10.40;;;3.75;;
34505;SDS011;20748;42.632;23.198;2022-11-20T14:09:58;10.77;;;6.30;;
34505;SDS011;20748;42.632;23.198;2022-11-20T14:12:31;11.65;;;4.35;;
34505;SDS011;20748;42.632;23.198;2022-11-20T14:15:05;10.15;;;3.08;;
34505;SDS011;20748;42.632;23.198;2022-11-20T14:17:53;11.77;;;6.15;;
34505;SDS011;20748;42.632;23.198;2022-11-20T14:20:26;7.22;;;3.92;;
34505;SDS011;20748;42.632;23.198;2022-11-20T14:23:01;8.05;;;2.83;;
34505;SDS011;20748;42.632;23.198;2022-11-20T14:25:34;4.80;;;2.58;;
34505;SDS011;20748;42.632;23.198;2022-11-20T14:28:10;7.47;;;2.92;;
34505;SDS011;20748;42.632;23.198;2022-11-20T14:30:51;7.60;;;2.72;;
34505;SDS011;20748;42.632;23.198;2022-11-20T14:33:25;5.75;;;2.00;;
34505;SDS011;20748;42.632;23.198;2022-11-20T14:35:58;5.93;;;2.78;;
34505;SDS011;20748;42.632;23.198;2022-11-20T14:38:31;7.43;;;3.10;;
34505;SDS011;20748;42.632;23.198;2022-11-20T14:41:07;8.98;;;2.95;;
34505;SDS011;20748;42.632;23.198;2022-11-20T14:43:40;5.03;;;1.30;;
34505;SDS011;20748;42.632;23.198;2022-11-20T14:46:17;4.63;;;1.48;;
34505;SDS011;20748;42.632;23.198;2022-11-20T14:48:51;1.95;;;1.10;;
34505;SDS011;20748;42.632;23.198;2022-11-20T14:51:27;1.90;;;1.08;;
34505;SDS011;20748;42.632;23.198;2022-11-20T14:54:12;4.22;;;1.60;;
34505;SDS011;20748;42.632;23.198;2022-11-20T14:56:53;6.07;;;2.45;;
34505;SDS011;20748;42.632;23.198;2022-11-20T14:59:27;2.85;;;1.00;;
34505;SDS011;20748;42.632;23.198;2022-11-20T15:02:01;4.40;;;1.00;;
34505;SDS011;20748;42.632;23.198;2022-11-20T15:04:44;2.42;;;1.42;;
34505;SDS011;20748;42.632;23.198;2022-11-20T15:07:23;1.20;;;0.80;;
34505;SDS011;20748;42.632;23.198;2022-11-20T15:10:05;2.70;;;1.13;;
34505;SDS011;20748;42.632;23.198;2022-11-20T15:12:40;1.17;;;0.82;;
34505;SDS011;20748;42.632;23.198;2022-11-20T15:15:20;3.65;;;1.25;;
34505;SDS011;20748;42.632;23.198;2022-11-20T15:17:56;1.75;;;0.85;;
34505;SDS011;20748;42.632;23.198;2022-11-20T15:20:30;1.60;;;0.75;;
34505;SDS011;20748;42.632;23.198;2022-11-20T15:23:07;1.92;;;0.75;;
34505;SDS011;20748;42.632;23.198;2022-11-20T15:25:43;3.67;;;1.20;;
34505;SDS011;20748;42.632;23.198;2022-11-20T15:28:17;2.55;;;0.70;;
34505;SDS011;20748;42.632;23.198;2022-11-20T15:30:52;1.25;;;0.80;;
34505;SDS011;20748;42.632;23.198;2022-11-20T15:33:25;3.33;;;1.85;;